Time;durP1;ratioP1;P1;durP2;ratioP2;P2;SDS_P1;SDS_P2;PMS_P1;PMS_P2;Temp;Humidity;BMP_temperature;BMP_pressure;BME280_temperature;BME280_humidity;BME280_pressure;Samples;Min_cycle;Max_cycle;Signal;HPM_P1;HPM_P2
2021/10/28 00:13:22;;;;;;;165.20;51.37;;;;;;;-0.41;100.00;101923.00;1592278;89;21611;-84
2021/10/28 00:15:56;;;;;;;186.70;52.33;;;;;;;-0.40;100.00;101914.56;1591946;88;21088;-85
2021/10/28 00:18:18;;;;;;;185.97;54.73;;;;;;;-0.44;100.00;101910.08;1589028;88;21039;-84
2021/10/28 00:20:44;;;;;;;186.22;55.08;;;;;;;-0.48;100.00;101904.73;1592152;88;21024;-85
2021/10/28 00:23:10;;;;;;;187.40;56.60;;;;;;;-0.52;100.00;101905.54;1592645;88;21030;-85
2021/10/28 00:25:38;;;;;;;209.03;60.65;;;;;;;-0.57;100.00;101898.54;1592613;88;21264;-84
2021/10/28 00:28:06;;;;;;;168.30;53.10;;;;;;;-0.57;100.00;101894.57;1571728;90;21048;-83
2021/10/28 00:30:33;;;;;;;193.30;56.23;;;;;;;-0.54;100.00;101893.44;1592345;88;21024;-91
2021/10/28 00:32:59;;;;;;;199.60;57.83;;;;;;;-0.57;100.00;101897.22;1592525;88;21094;-84
2021/10/28 00:35:25;;;;;;;167.85;52.90;;;;;;;-0.60;100.00;101903.32;1592494;88;21043;-84
2021/10/28 00:37:51;;;;;;;170.10;51.45;;;;;;;-0.66;100.00;101903.44;1592321;88;21091;-86
2021/10/28 00:40:17;;;;;;;175.05;50.40;;;;;;;-0.69;100.00;101899.78;1592614;88;20928;-85
2021/10/28 00:42:43;;;;;;;151.80;48.50;;;;;;;-0.72;100.00;101893.47;1592373;88;21079;-83
2021/10/28 00:45:09;;;;;;;151.35;48.15;;;;;;;-0.78;100.00;101905.50;1592314;88;20869;-84
2021/10/28 00:47:39;;;;;;;168.25;49.88;;;;;;;-0.79;100.00;101905.66;1592067;88;21146;-83
2021/10/28 00:50:06;;;;;;;178.78;52.30;;;;;;;-0.77;100.00;101907.15;1646592;85;21077;-84
2021/10/28 00:52:35;;;;;;;179.90;48.85;;;;;;;-0.78;100.00;101902.84;1647755;85;21081;-84
2021/10/28 00:55:01;;;;;;;153.80;48.55;;;;;;;-0.76;100.00;101898.74;1648094;85;21096;-84
2021/10/28 00:57:27;;;;;;;159.27;47.70;;;;;;;-0.75;100.00;101900.39;1647881;86;21046;-84
2021/10/28 00:59:54;;;;;;;158.82;47.00;;;;;;;-0.78;100.00;101906.81;1643802;85;21077;-83
2021/10/28 01:02:20;;;;;;;149.23;45.63;;;;;;;-0.80;100.00;101902.66;1647990;85;21133;-84
2021/10/28 01:04:46;;;;;;;143.37;45.23;;;;;;;-0.80;100.00;101909.27;1647547;85;21664;-84
2021/10/28 01:07:13;;;;;;;132.82;42.93;;;;;;;-0.86;100.00;101902.77;1623172;85;20929;-85
2021/10/28 01:09:40;;;;;;;131.37;41.88;;;;;;;-0.89;100.00;101901.75;1647838;85;21132;-84
2021/10/28 01:12:08;;;;;;;144.25;42.78;;;;;;;-0.90;100.00;101901.42;1647577;85;21229;-84
2021/10/28 01:14:45;;;;;;;140.75;43.28;;;;;;;-0.87;100.00;101906.91;1647338;85;22054;-83
2021/10/28 01:17:12;;;;;;;138.75;42.50;;;;;;;-0.89;100.00;101904.90;1647758;86;21531;-84
2021/10/28 01:19:38;;;;;;;142.37;43.08;;;;;;;-0.91;100.00;101902.42;1647731;85;21014;-84
2021/10/28 01:22:05;;;;;;;149.62;44.10;;;;;;;-0.96;100.00;101902.03;1647795;86;21097;-83
2021/10/28 01:24:32;;;;;;;134.55;40.65;;;;;;;-0.99;100.00;101898.37;1647786;85;21090;-83
2021/10/28 01:27:08;;;;;;;128.38;44.03;;;;;;;-1.02;100.00;101896.86;1647667;85;22368;-84
2021/10/28 01:29:36;;;;;;;135.45;41.98;;;;;;;-1.01;100.00;101897.68;1647324;85;21124;-83
2021/10/28 01:32:04;;;;;;;139.35;43.05;;;;;;;-1.06;100.00;101886.72;1645572;85;20982;-87
2021/10/28 01:34:29;;;;;;;118.97;40.25;;;;;;;-1.05;100.00;101888.40;1645788;85;21159;-84
2021/10/28 01:36:57;;;;;;;128.45;41.08;;;;;;;-1.10;100.00;101887.52;1645812;85;21066;-84
2021/10/28 01:39:24;;;;;;;134.57;41.83;;;;;;;-1.14;100.00;101891.45;1645582;86;21224;-89
2021/10/28 01:41:53;;;;;;;137.43;42.60;;;;;;;-1.16;100.00;101897.38;1621099;87;21045;-82
2021/10/28 01:44:20;;;;;;;121.82;42.10;;;;;;;-1.20;100.00;101895.53;1645696;85;22283;-84
2021/10/28 01:46:46;;;;;;;129.45;43.23;;;;;;;-1.25;100.00;101899.61;1645661;85;21578;-84
2021/10/28 01:49:24;;;;;;;120.65;40.75;;;;;;;-1.23;100.00;101896.33;1646172;85;21102;-85
2021/10/28 01:51:53;;;;;;;118.87;41.45;;;;;;;-1.23;100.00;101900.30;1645814;85;21089;-84
2021/10/28 01:54:21;;;;;;;136.90;42.70;;;;;;;-1.24;100.00;101910.51;1645571;87;21084;-84
2021/10/28 01:56:47;;;;;;;119.05;40.03;;;;;;;-1.30;100.00;101904.50;1645622;86;21053;-84
2021/10/28 01:59:13;;;;;;;131.03;42.15;;;;;;;-1.35;100.00;101912.89;1645589;85;21164;-88
2021/10/28 02:01:40;;;;;;;125.50;40.98;;;;;;;-1.35;100.00;101910.25;1645678;85;21111;-85
2021/10/28 02:04:06;;;;;;;126.50;41.48;;;;;;;-1.35;100.00;101912.89;1665804;84;22375;-84
2021/10/28 02:06:33;;;;;;;123.42;41.53;;;;;;;-1.35;100.00;101919.97;1645825;86;21076;-84
2021/10/28 02:09:00;;;;;;;117.85;40.92;;;;;;;-1.36;100.00;101909.89;1645829;85;21053;-83
2021/10/28 02:11:27;;;;;;;123.70;41.37;;;;;;;-1.35;100.00;101908.93;1648705;84;21120;-84
2021/10/28 02:13:58;;;;;;;116.73;40.73;;;;;;;-1.34;100.00;101919.02;1645784;85;21612;-83
2021/10/28 02:16:22;;;;;;;127.50;42.15;;;;;;;-1.35;100.00;101923.47;1645907;85;21061;-87
2021/10/28 02:18:48;;;;;;;125.87;42.15;;;;;;;-1.34;100.00;101926.45;1645787;85;21639;-87
2021/10/28 02:21:14;;;;;;;119.08;41.70;;;;;;;-1.34;100.00;101925.63;1646049;85;21636;-86
2021/10/28 02:23:40;;;;;;;116.42;41.65;;;;;;;-1.33;100.00;101916.20;1645953;86;20914;-85
2021/10/28 02:26:05;;;;;;;122.72;42.38;;;;;;;-1.31;100.00;101919.54;1646081;85;20891;-87
2021/10/28 02:28:31;;;;;;;122.80;41.20;;;;;;;-1.29;100.00;101920.73;1645709;87;21163;-85
2021/10/28 02:30:58;;;;;;;119.37;41.92;;;;;;;-1.28;100.00;101915.77;1641362;85;21005;-84
2021/10/28 02:33:23;;;;;;;127.32;43.13;;;;;;;-1.31;100.00;101920.03;1645630;85;21072;-86
2021/10/28 02:35:49;;;;;;;110.80;41.02;;;;;;;-1.27;100.00;101925.35;1645738;85;20953;-85
2021/10/28 02:38:15;;;;;;;109.97;39.05;;;;;;;-1.24;100.00;101924.56;1645935;85;21038;-84
2021/10/28 02:40:41;;;;;;;124.65;42.43;;;;;;;-1.21;100.00;101926.08;1621244;87;21204;-88
2021/10/28 02:43:07;;;;;;;124.12;41.33;;;;;;;-1.18;100.00;101925.78;1645351;86;20974;-84
2021/10/28 02:45:32;;;;;;;143.55;47.85;;;;;;;-1.21;100.00;101926.91;1645952;85;21025;-89
2021/10/28 02:47:58;;;;;;;130.65;42.23;;;;;;;-1.23;100.00;101926.73;1646069;85;20921;-85
2021/10/28 02:50:24;;;;;;;127.15;41.45;;;;;;;-1.27;100.00;101922.70;1646305;85;21009;-84
2021/10/28 02:52:50;;;;;;;124.55;42.55;;;;;;;-1.29;100.00;101926.02;1646029;87;22185;-84
2021/10/28 02:55:16;;;;;;;138.35;43.50;;;;;;;-1.32;100.00;101924.50;1645784;85;21029;-85
2021/10/28 02:57:43;;;;;;;138.95;46.23;;;;;;;-1.29;100.00;101928.66;1645490;85;21034;-87
2021/10/28 03:00:11;;;;;;;154.25;48.38;;;;;;;-1.30;100.00;101929.62;1646025;85;21065;-85
2021/10/28 03:02:36;;;;;;;144.80;44.20;;;;;;;-1.31;100.00;101934.58;1645984;85;21101;-84
2021/10/28 03:05:04;;;;;;;140.57;44.38;;;;;;;-1.33;100.00;101936.53;1645992;85;22236;-90
2021/10/28 03:07:31;;;;;;;142.60;45.30;;;;;;;-1.35;100.00;101939.80;1645860;86;21017;-85
2021/10/28 03:09:57;;;;;;;122.42;40.30;;;;;;;-1.38;100.00;101935.17;1645536;85;21696;-84
2021/10/28 03:12:23;;;;;;;126.02;40.12;;;;;;;-1.39;100.00;101932.17;1645805;85;20993;-83
2021/10/28 03:14:53;;;;;;;116.57;38.92;;;;;;;-1.35;100.00;101931.87;1645567;85;21089;-84
2021/10/28 03:17:28;;;;;;;122.17;39.27;;;;;;;-1.32;100.00;101936.86;1648688;84;21010;-85
2021/10/28 03:25:37;;;;;;;124.70;41.55;;;;;;;-1.43;100.00;101934.77;1645509;85;21045;-85
2021/10/28 03:28:03;;;;;;;136.57;41.65;;;;;;;-1.45;100.00;101936.73;1645727;85;21049;-84
2021/10/28 03:30:29;;;;;;;135.52;42.03;;;;;;;-1.52;100.00;101940.95;1641325;86;21162;-84
2021/10/28 03:32:55;;;;;;;128.07;42.85;;;;;;;-1.54;100.00;101943.39;1645633;85;21573;-84
2021/10/28 03:35:22;;;;;;;126.25;40.88;;;;;;;-1.55;100.00;101947.85;1605617;89;21646;-84
2021/10/28 04:28:53;;;;;;;104.47;38.75;;;;;;;-1.12;100.00;101952.13;1558620;91;21029;-82
2021/10/28 04:30:37;;;;;;;104.50;36.63;;;;;;;-0.91;100.00;101959.30;1559068;90;21096;-85
2021/10/28 04:33:05;;;;;;;111.52;38.02;;;;;;;-0.84;100.00;101956.38;1558228;91;21053;-85
2021/10/28 04:35:31;;;;;;;104.25;37.78;;;;;;;-0.75;100.00;101960.77;1616862;86;21290;-86
2021/10/28 04:37:58;;;;;;;108.42;36.88;;;;;;;-0.68;100.00;101966.28;1660480;85;21059;-84
2021/10/28 04:40:23;;;;;;;101.18;37.05;;;;;;;-0.59;100.00;101967.18;1660900;84;21030;-87
2021/10/28 04:42:49;;;;;;;115.85;39.53;;;;;;;-0.44;100.00;101960.85;1658530;85;20923;-88
2021/10/28 04:45:15;;;;;;;109.37;38.17;;;;;;;-0.32;100.00;101960.47;1661627;84;20991;-83
2021/10/28 04:47:41;;;;;;;120.57;39.73;;;;;;;-0.16;100.00;101965.05;1660562;85;21797;-84
2021/10/28 04:50:08;;;;;;;116.75;38.80;;;;;;;-0.02;100.00;101958.35;1660386;85;20895;-85
2021/10/28 04:52:34;;;;;;;105.50;36.77;;;;;;;0.12;100.00;101953.80;1658912;86;21109;-85
2021/10/28 04:55:00;;;;;;;107.05;36.85;;;;;;;0.27;100.00;101956.70;1658977;86;21031;-85
2021/10/28 04:57:26;;;;;;;114.40;38.33;;;;;;;0.38;100.00;101959.54;1653521;86;21192;-87
2021/10/28 04:59:52;;;;;;;111.35;37.40;;;;;;;0.52;100.00;101957.62;1651023;86;21329;-84
2021/10/28 05:02:18;;;;;;;130.95;39.15;;;;;;;0.67;100.00;101957.34;1646059;86;20956;-83
2021/10/28 05:04:44;;;;;;;124.25;37.45;;;;;;;0.84;100.00;101969.34;1644591;86;20943;-83
2021/10/28 05:07:09;;;;;;;130.40;40.45;;;;;;;0.94;100.00;101968.69;1628633;86;20972;-84
2021/10/28 05:09:40;;;;;;;128.80;41.42;;;;;;;1.02;100.00;101971.37;1632151;86;21007;-83
2021/10/28 05:12:06;;;;;;;129.63;40.00;;;;;;;1.10;100.00;101967.91;1628571;86;21078;-87
2021/10/28 05:14:32;;;;;;;137.37;41.02;;;;;;;1.18;100.00;101972.38;1579517;89;21090;-85
2021/10/28 05:16:58;;;;;;;144.72;44.38;;;;;;;1.22;100.00;101975.06;1581580;88;21022;-84
2021/10/28 05:19:29;;;;;;;134.18;45.12;;;;;;;1.32;100.00;101977.05;1592977;88;21124;-84
2021/10/28 05:21:54;;;;;;;145.57;43.83;;;;;;;1.42;100.00;101968.45;1557111;90;21145;-83
2021/10/28 05:24:20;;;;;;;132.57;44.48;;;;;;;1.56;100.00;101970.95;1561396;90;21133;-84
2021/10/28 05:26:46;;;;;;;135.30;43.85;;;;;;;1.63;100.00;101979.91;1558707;90;21219;-84
2021/10/28 05:29:12;;;;;;;128.18;43.02;;;;;;;1.69;100.00;101971.27;1545847;90;21667;-82
2021/10/28 05:31:38;;;;;;;138.20;47.17;;;;;;;1.78;100.00;101980.88;1560448;90;21117;-84
2021/10/28 05:34:04;;;;;;;182.70;60.67;;;;;;;1.90;100.00;101978.72;1545182;91;21167;-83
2021/10/28 05:36:30;;;;;;;187.70;61.55;;;;;;;2.02;100.00;101989.83;1542286;91;21294;-84
2021/10/28 05:38:55;;;;;;;249.52;75.85;;;;;;;2.18;100.00;101996.45;1546556;91;21036;-84
2021/10/28 05:41:21;;;;;;;288.32;81.35;;;;;;;2.36;100.00;101976.80;1547131;90;20950;-83
2021/10/28 05:43:47;;;;;;;203.12;65.45;;;;;;;2.61;100.00;101984.17;1543870;91;20918;-83
2021/10/28 05:46:13;;;;;;;225.38;70.72;;;;;;;2.90;100.00;101984.88;1542139;91;21080;-85
2021/10/28 05:48:39;;;;;;;208.87;67.10;;;;;;;3.17;100.00;101989.69;1546453;91;21122;-83
2021/10/28 05:51:05;;;;;;;196.95;64.60;;;;;;;3.56;100.00;101993.25;1541838;91;20934;-85
2021/10/28 05:53:32;;;;;;;182.80;61.98;;;;;;;4.12;100.00;101988.44;1545350;91;21510;-84
2021/10/28 05:55:58;;;;;;;165.60;56.15;;;;;;;4.37;100.00;101990.83;1530249;91;21120;-83
2021/10/28 05:58:24;;;;;;;156.10;54.40;;;;;;;4.58;100.00;101982.08;1547821;91;20946;-88
2021/10/28 06:00:50;;;;;;;155.63;54.33;;;;;;;4.81;100.00;101985.45;1542099;91;21644;-83
2021/10/28 06:03:16;;;;;;;146.53;52.40;;;;;;;5.11;100.00;101985.38;1544648;91;21605;-84
2021/10/28 06:05:42;;;;;;;131.57;48.55;;;;;;;5.31;100.00;101990.42;1545777;91;21129;-85
2021/10/28 06:08:08;;;;;;;112.85;40.38;;;;;;;5.39;100.00;101984.95;1547237;91;21121;-85
2021/10/28 06:10:34;;;;;;;101.78;38.30;;;;;;;5.39;100.00;101984.95;1554588;90;21128;-86
2021/10/28 06:13:03;;;;;;;108.65;37.13;;;;;;;5.55;100.00;102009.26;1560802;90;22019;-84
2021/10/28 06:15:30;;;;;;;99.45;36.83;;;;;;;5.67;100.00;102008.23;1557413;91;21093;-84
2021/10/28 06:18:00;;;;;;;93.47;37.05;;;;;;;5.87;100.00;102003.88;1584385;86;21048;-84
2021/10/28 06:20:26;;;;;;;101.67;34.85;;;;;;;6.12;100.00;101999.48;1662781;85;21961;-85
2021/10/28 06:22:54;;;;;;;95.17;34.08;;;;;;;6.63;100.00;102004.52;1660382;84;21059;-84
2021/10/28 06:25:21;;;;;;;103.85;35.03;;;;;;;7.00;100.00;101986.30;1659063;86;21148;-85
2021/10/28 06:27:48;;;;;;;97.20;36.70;;;;;;;7.09;100.00;101976.22;1659062;85;21058;-84
2021/10/28 06:30:14;;;;;;;104.43;36.42;;;;;;;7.35;100.00;101980.30;1659027;85;21177;-85
2021/10/28 06:32:49;;;;;;;95.97;38.90;;;;;;;7.57;100.00;101984.16;1655343;86;21051;-84
2021/10/28 06:35:15;;;;;;;102.90;38.00;;;;;;;7.74;100.00;101996.97;1654495;85;21055;-82
2021/10/28 06:37:46;;;;;;;112.95;41.42;;;;;;;7.88;100.00;102000.97;1655020;85;21897;-85
2021/10/28 06:40:10;;;;;;;110.57;39.05;;;;;;;8.03;100.00;101992.70;1650629;85;21015;-86
2021/10/28 06:42:36;;;;;;;91.20;35.40;;;;;;;8.10;100.00;101999.73;1661560;85;21814;-84
2021/10/28 06:45:03;;;;;;;89.10;34.43;;;;;;;8.12;100.00;101999.53;1656189;85;20905;-87
2021/10/28 06:47:32;;;;;;;90.47;33.10;;;;;;;8.07;100.00;102011.41;1658545;86;21132;-86
2021/10/28 06:50:05;;;;;;;94.28;35.05;;;;;;;8.03;100.00;102019.06;1657053;84;21169;-86
2021/10/28 06:52:35;;;;;;;97.92;35.80;;;;;;;8.01;100.00;102018.43;1648912;84;21140;-86
2021/10/28 06:54:56;;;;;;;96.82;35.10;;;;;;;8.02;100.00;102004.48;1658301;83;21084;-86
2021/10/28 06:57:56;;;;;;;96.95;36.75;;;;;;;8.11;100.00;102008.61;1651952;85;21061;-86
2021/10/28 07:02:48;;;;;;;96.55;34.25;;;;;;;8.69;100.00;102006.02;1631527;86;21076;-90
2021/10/28 07:05:14;;;;;;;109.52;37.13;;;;;;;8.89;100.00;101996.55;1655999;86;22110;-88
2021/10/28 07:07:40;;;;;;;84.90;32.50;;;;;;;9.14;100.00;101993.10;1655724;85;21023;-88
2021/10/28 07:58:30;;;;;;;49.95;25.08;;;;;;;23.68;45.20;101915.54;1562600;91;21598;-89
2021/10/28 08:14:57;;;;;;;42.67;23.38;;;;;;;26.89;37.26;101916.22;1541290;92;21127;-87
2021/10/28 08:20:01;;;;;;;43.58;23.05;;;;;;;27.70;35.16;101922.24;1533507;92;21090;-85
2021/10/28 08:22:40;;;;;;;38.73;22.42;;;;;;;28.14;33.67;101910.05;1562927;89;21086;-86
2021/10/28 08:30:26;;;;;;;45.33;22.70;;;;;;;24.27;34.36;101923.56;1584022;89;21141;-87
2021/10/28 08:32:52;;;;;;;46.68;23.10;;;;;;;22.91;36.05;101928.98;1608159;89;21062;-86
2021/10/28 08:35:19;;;;;;;50.38;23.30;;;;;;;21.73;37.33;101915.49;1607520;87;21689;-85
2021/10/28 08:40:15;;;;;;;49.70;23.67;;;;;;;19.47;41.02;101912.23;1597535;88;21139;-83
2021/10/28 08:42:45;;;;;;;47.00;22.70;;;;;;;18.66;42.70;101915.53;1602811;88;21642;-81
2021/10/28 08:45:15;;;;;;;47.48;22.52;;;;;;;17.87;44.78;101913.38;1605125;88;21096;-81
2021/10/28 08:47:51;;;;;;;47.23;21.80;;;;;;;17.12;46.34;101910.95;1611005;87;21727;-81
2021/10/28 08:50:26;;;;;;;43.83;21.02;;;;;;;16.63;47.92;101910.84;1605640;87;21144;-83
2021/10/28 08:55:29;;;;;;;52.43;22.42;;;;;;;15.96;52.29;101893.44;1605591;87;20238;-83
2021/10/28 09:29:34;;;;;;;35.47;14.43;;;;;;;15.25;69.14;101856.27;1602563;88;21091;-91
2021/10/28 09:34:40;;;;;;;29.98;13.58;;;;;;;15.21;66.34;101858.14;1544106;92;21251;-90
2021/10/28 09:51:07;;;;;;;36.63;13.60;;;;;;;15.37;67.56;101856.89;1549781;91;21166;-88
2021/10/28 09:59:33;;;;;;;42.73;18.23;;;;;;;15.66;64.95;101849.20;1549019;92;21089;-95
2021/10/28 10:02:11;;;;;;;42.73;17.32;;;;;;;15.66;66.35;101850.56;1548495;91;21172;-95
2021/10/28 10:04:41;;;;;;;38.55;16.55;;;;;;;15.77;65.66;101839.25;1541295;92;21074;-90
2021/10/28 10:07:09;;;;;;;46.45;18.15;;;;;;;15.88;65.81;101827.32;1549604;91;21079;-92
2021/10/28 10:09:38;;;;;;;40.30;18.00;;;;;;;15.96;64.50;101826.00;1549474;91;21122;-93
2021/10/28 10:12:07;;;;;;;41.58;17.30;;;;;;;15.99;64.39;101833.09;1550240;91;22113;-94
2021/10/28 10:14:37;;;;;;;39.88;17.32;;;;;;;16.06;65.69;101825.52;1545114;92;21166;-92
2021/10/28 10:17:06;;;;;;;39.73;16.95;;;;;;;16.16;64.36;101815.20;1507839;95;21640;-91
2021/10/28 10:19:36;;;;;;;43.80;18.05;;;;;;;16.17;64.26;101810.03;1508130;93;21173;-92
2021/10/28 11:25:39;;;;;;;52.10;19.37;;;;;;;16.08;62.35;101764.05;1593047;88;21748;-88
2021/10/28 12:49:00;;;;;;;47.58;15.98;;;;;;;14.69;76.81;101717.66;1588106;89;21100;-87
2021/10/28 12:51:31;;;;;;;51.30;17.67;;;;;;;14.65;78.23;101727.41;1584702;89;21174;-86
2021/10/28 13:48:38;;;;;;;41.37;16.70;;;;;;;13.67;88.75;101716.62;1542588;92;21095;-88
2021/10/28 13:51:12;;;;;;;50.55;18.65;;;;;;;13.64;89.56;101713.06;1539345;92;21134;-88
2021/10/28 13:56:23;;;;;;;57.08;19.48;;;;;;;13.59;90.01;101716.55;1542787;92;21050;-88
2021/10/28 14:26:19;;;;;;;63.90;22.45;;;;;;;13.34;96.41;101704.03;1683743;83;21017;-86
2021/10/28 14:29:17;;;;;;;59.65;21.48;;;;;;;13.31;96.03;101708.05;1679878;83;21548;-85
2021/10/28 15:01:24;;;;;;;57.55;20.57;;;;;;;12.81;100.00;101706.77;1582534;87;21071;-87
2021/10/28 15:38:14;;;;;;;161.25;49.60;;;;;;;12.65;100.00;101726.00;1660570;85;21062;-89
2021/10/28 15:54:20;;;;;;;108.07;35.58;;;;;;;12.46;100.00;101724.87;1643536;85;21125;-89
2021/10/28 16:23:22;;;;;;;105.17;35.85;;;;;;;12.55;100.00;101720.41;1655276;85;21077;-90
2021/10/28 16:25:48;;;;;;;106.43;35.38;;;;;;;12.53;100.00;101722.02;1654314;84;21049;-90
2021/10/28 16:28:19;;;;;;;112.83;38.83;;;;;;;12.52;100.00;101720.91;1651880;85;21019;-94
2021/10/28 16:30:47;;;;;;;117.85;40.73;;;;;;;12.50;100.00;101725.22;1655800;85;21114;-90
2021/10/28 16:33:14;;;;;;;121.95;42.10;;;;;;;12.47;100.00;101722.47;1639966;85;21026;-92
2021/10/28 16:35:42;;;;;;;126.15;42.05;;;;;;;12.43;100.00;101728.59;1650567;84;21580;-92
2021/10/28 16:38:13;;;;;;;123.05;44.30;;;;;;;12.40;100.00;101733.14;1641976;84;21127;-93
2021/10/28 16:40:40;;;;;;;126.50;43.80;;;;;;;12.36;100.00;101730.65;1647099;84;21111;-92
2021/10/28 16:43:08;;;;;;;129.55;45.48;;;;;;;12.30;100.00;101723.52;1631216;86;21095;-93
2021/10/28 16:45:36;;;;;;;144.00;47.90;;;;;;;12.23;100.00;101727.70;1630205;86;21150;-91
2021/10/28 16:48:07;;;;;;;146.57;49.38;;;;;;;12.16;100.00;101717.05;1630169;86;22473;-94
2021/10/28 16:50:35;;;;;;;150.15;51.77;;;;;;;12.11;100.00;101721.53;1630412;86;21090;-92
2021/10/28 16:53:00;;;;;;;164.13;51.05;;;;;;;12.09;100.00;101728.55;1630092;86;21048;-93
2021/10/28 16:55:29;;;;;;;165.68;52.03;;;;;;;12.02;100.00;101730.02;1611805;86;21758;-92
2021/10/28 16:57:54;;;;;;;156.55;47.88;;;;;;;11.95;100.00;101732.06;1629722;86;21600;-92
2021/10/28 17:00:20;;;;;;;146.53;48.02;;;;;;;11.89;100.00;101726.80;1644119;85;21009;-93
2021/10/28 17:02:46;;;;;;;145.60;46.92;;;;;;;11.82;100.00;101733.14;1638665;85;21185;-88
2021/10/28 17:05:14;;;;;;;142.10;45.88;;;;;;;11.78;100.00;101724.39;1661502;84;22132;-89
2021/10/28 17:07:40;;;;;;;138.25;45.70;;;;;;;11.73;100.00;101725.10;1651235;83;22355;-89
2021/10/28 17:10:07;;;;;;;132.65;43.08;;;;;;;11.68;100.00;101737.17;1655535;84;20905;-87
2021/10/28 17:12:36;;;;;;;126.07;42.33;;;;;;;11.68;100.00;101741.75;1659707;83;21079;-88
2021/10/28 17:15:05;;;;;;;116.82;41.58;;;;;;;11.67;100.00;101742.26;1656602;84;21123;-87
2021/10/28 17:17:31;;;;;;;109.90;37.85;;;;;;;11.66;100.00;101741.17;1622121;85;21119;-88
2021/10/28 17:20:04;;;;;;;110.65;38.30;;;;;;;11.66;100.00;101750.62;1605293;86;21724;-87
2021/10/28 17:22:27;;;;;;;104.03;35.75;;;;;;;11.64;100.00;101762.17;1598950;88;21089;-90
2021/10/28 17:24:52;;;;;;;100.12;33.58;;;;;;;11.62;100.00;101762.43;1598429;88;21030;-90
2021/10/28 17:27:42;;;;;;;;;;;;;;;;;;;;;
2021/10/28 17:30:03;;;;;;;78.07;29.32;;;;;;;11.56;100.00;101764.73;1549803;92;21130;-87
2021/10/28 17:32:43;;;;;;;82.75;27.75;;;;;;;11.52;100.00;101764.89;1545254;91;21178;-88
2021/10/28 17:35:25;;;;;;;85.65;30.00;;;;;;;11.52;100.00;101768.41;1483238;95;21628;-86
2021/10/28 17:37:50;;;;;;;72.42;26.62;;;;;;;11.54;100.00;101762.79;1488341;95;21135;-86
2021/10/28 17:40:24;;;;;;;75.08;27.10;;;;;;;11.47;100.00;101764.77;1473669;95;21159;-88
2021/10/28 17:42:47;;;;;;;78.35;27.05;;;;;;;11.43;100.00;101778.47;1484505;95;21156;-91
2021/10/28 17:45:14;;;;;;;73.97;25.60;;;;;;;11.39;100.00;101775.42;1461500;96;21245;-88
2021/10/28 17:47:45;;;;;;;73.92;26.27;;;;;;;11.35;100.00;101780.48;1458350;96;21646;-90
2021/10/28 17:50:26;;;;;;;74.47;25.68;;;;;;;11.36;100.00;101784.81;1451262;97;21225;-92
2021/10/28 17:52:52;;;;;;;67.78;25.92;;;;;;;11.40;100.00;101782.98;1437931;98;21210;-88
2021/10/28 17:55:18;;;;;;;73.00;25.20;;;;;;;11.42;100.00;101777.65;1434375;97;20954;-89
2021/10/28 17:57:49;;;;;;;70.12;25.97;;;;;;;11.45;100.00;101779.06;1451580;97;21299;-87
2021/10/28 18:00:17;;;;;;;68.52;25.50;;;;;;;11.47;100.00;101782.32;1451628;96;21725;-90
2021/10/28 18:02:44;;;;;;;68.65;25.45;;;;;;;11.49;100.00;101785.61;1456218;97;21160;-91
2021/10/28 18:05:11;;;;;;;64.92;24.57;;;;;;;11.49;100.00;101784.27;1474792;97;21198;-89
2021/10/28 18:07:38;;;;;;;66.82;25.40;;;;;;;11.50;100.00;101786.74;1465615;96;21178;-92
2021/10/28 18:10:09;;;;;;;61.90;23.38;;;;;;;11.51;100.00;101781.63;1452187;96;21672;-88
2021/10/28 18:12:35;;;;;;;64.32;23.90;;;;;;;11.53;100.00;101778.17;1435704;97;21157;-91
2021/10/28 18:15:06;;;;;;;60.70;22.67;;;;;;;11.57;100.00;101782.56;1409939;99;21218;-89
2021/10/28 18:17:32;;;;;;;62.93;24.05;;;;;;;11.62;100.00;101784.03;1472641;96;21061;-89
2021/10/28 18:20:36;;;;;;;58.02;23.55;;;;;;;11.66;100.00;101781.67;1470433;96;21335;-90
2021/10/28 18:23:02;;;;;;;64.15;23.00;;;;;;;11.68;100.00;101783.08;1433574;98;21206;-90
2021/10/28 18:25:29;;;;;;;55.30;21.87;;;;;;;11.72;100.00;101790.98;1451362;97;21123;-91
2021/10/28 18:27:58;;;;;;;64.20;22.65;;;;;;;11.74;100.00;101786.17;1515677;91;21088;-90
2021/10/28 18:30:28;;;;;;;60.58;22.37;;;;;;;11.75;100.00;101780.23;1518706;91;21199;-89
2021/10/28 18:32:57;;;;;;;68.52;23.07;;;;;;;11.74;100.00;101780.77;1570011;88;21191;-89
2021/10/28 18:35:28;;;;;;;65.30;23.18;;;;;;;11.76;100.00;101791.31;1578405;88;21536;-91
2021/10/28 18:37:55;;;;;;;61.98;22.00;;;;;;;11.77;100.00;101789.75;1564608;89;21418;-93
2021/10/28 18:40:22;;;;;;;55.98;21.70;;;;;;;11.79;100.00;101790.34;1567297;89;21187;-91
2021/10/28 18:42:49;;;;;;;61.00;23.52;;;;;;;11.80;100.00;101787.92;1574729;89;21551;-93
2021/10/28 18:45:16;;;;;;;68.60;23.87;;;;;;;11.83;100.00;101788.79;1542834;91;21129;-89
2021/10/28 18:47:43;;;;;;;59.27;22.77;;;;;;;11.83;100.00;101792.84;1573786;88;21822;-90
2021/10/28 18:50:09;;;;;;;52.13;21.82;;;;;;;11.82;100.00;101797.12;1591961;88;21664;-91
2021/10/28 18:52:36;;;;;;;61.30;23.35;;;;;;;11.82;100.00;101803.87;1597786;88;21098;-89
2021/10/28 18:55:04;;;;;;;57.25;22.50;;;;;;;11.84;100.00;101793.66;1597933;88;20947;-90
2021/10/28 18:57:31;;;;;;;59.40;23.75;;;;;;;11.83;100.00;101808.23;1597660;88;21035;-91
2021/10/28 18:59:57;;;;;;;60.28;22.48;;;;;;;11.83;100.00;101813.63;1597839;88;21143;-90
2021/10/28 19:02:26;;;;;;;70.30;23.70;;;;;;;11.83;100.00;101819.84;1597972;88;21000;-90
2021/10/28 19:04:51;;;;;;;65.83;23.10;;;;;;;11.85;100.00;101818.78;1597443;88;21102;-91
2021/10/28 19:07:17;;;;;;;57.25;21.60;;;;;;;11.85;100.00;101816.08;1597818;88;21087;-91
2021/10/28 19:09:43;;;;;;;64.55;23.20;;;;;;;11.86;100.00;101817.77;1597733;88;21074;-90
2021/10/28 19:12:09;;;;;;;57.65;23.07;;;;;;;11.85;100.00;101819.63;1597938;88;21204;-91
2021/10/28 19:14:42;;;;;;;62.40;22.65;;;;;;;11.86;100.00;101825.88;1597898;88;20952;-91
2021/10/28 19:17:03;;;;;;;59.35;23.10;;;;;;;11.85;100.00;101833.64;1597294;88;20976;-90
2021/10/28 19:19:29;;;;;;;54.33;22.40;;;;;;;11.85;100.00;101826.88;1598258;88;21590;-90
2021/10/28 19:21:54;;;;;;;61.45;23.67;;;;;;;11.86;100.00;101825.88;1598063;88;20940;-91
2021/10/28 19:24:20;;;;;;;61.63;23.05;;;;;;;11.87;100.00;101841.83;1598099;88;21199;-91
2021/10/28 19:26:47;;;;;;;53.63;22.32;;;;;;;11.88;100.00;101835.36;1598101;88;21004;-92
2021/10/28 19:29:13;;;;;;;59.95;23.22;;;;;;;11.90;100.00;101837.30;1572993;89;21087;-89
2021/10/28 19:31:51;;;;;;;55.08;23.32;;;;;;;11.90;100.00;101836.48;1598073;88;20991;-88
2021/10/28 19:34:07;;;;;;;57.10;22.75;;;;;;;11.90;100.00;101835.14;1597207;88;21171;-89
2021/10/28 19:37:00;;;;;;;58.73;22.40;;;;;;;11.88;100.00;101838.06;1613422;86;21968;-91
2021/10/28 19:42:20;;;;;;;58.65;22.52;;;;;;;11.88;100.00;101845.34;1616849;87;21097;-90
2021/10/28 19:47:18;;;;;;;57.75;21.93;;;;;;;11.84;100.00;101857.13;1616914;88;21526;-91
2021/10/28 19:49:46;;;;;;;62.20;23.52;;;;;;;11.82;100.00;101859.23;1617336;88;21100;-91
2021/10/28 19:52:15;;;;;;;57.27;22.95;;;;;;;11.82;100.00;101858.73;1616886;88;21249;-90
2021/10/28 19:54:46;;;;;;;62.80;23.77;;;;;;;11.81;100.00;101858.42;1617138;88;21080;-91
2021/10/28 19:57:18;;;;;;;69.90;24.18;;;;;;;11.81;100.00;101858.95;1590774;90;21095;-91
2021/10/28 19:59:44;;;;;;;63.00;24.75;;;;;;;11.82;100.00;101857.38;1594113;88;21076;-91
2021/10/28 20:02:16;;;;;;;66.85;23.87;;;;;;;11.85;100.00;101864.70;1570652;90;21114;-92
2021/10/28 20:07:22;;;;;;;60.40;23.90;;;;;;;11.82;100.00;101862.78;1590799;90;21111;-91